Terminal Aerodrome Forecast
Issued by NWS Twin Cities, MN

Home | Current Version | Previous Version | Graphics & Text | Print | Product List | Glossary On
Versions: 1 2 3 4 5 6 7 8 9 10 11 12 13 14 15 16 17 18
000
FTUS43 KMPX 011141
TAFSTC
TAF
KSTC 011141Z 0112/0212 13010KT P6SM SKC
     FM011400 16015G23KT P6SM FEW150
     FM011800 17018G35KT P6SM SCT150
     FM012300 20016G28KT P6SM VCSH BKN060 OVC120
     FM020200 28011KT P6SM SCT060 BKN250=

USA.gov is the U.S. government's official web portal to all federal, state and local government web resources and services.